createdAt,value
2018-09-04T00:00:40.810Z,99.90
2018-09-04T00:04:05.232Z,99.90
2018-09-04T00:07:29.640Z,99.90
2018-09-04T00:10:54.052Z,99.90
2018-09-04T00:14:18.474Z,99.90
2018-09-04T00:17:43.167Z,99.90
2018-09-04T00:21:07.889Z,99.90
2018-09-04T00:24:32.308Z,99.90
2018-09-04T00:27:56.693Z,99.90
2018-09-04T00:31:21.097Z,99.90
2018-09-04T00:34:45.497Z,99.90
2018-09-04T00:38:09.954Z,99.90
2018-09-04T00:41:34.347Z,99.90
2018-09-04T00:44:58.769Z,99.90
2018-09-04T00:48:23.194Z,99.90
2018-09-04T00:51:47.621Z,99.90
2018-09-04T00:55:12.056Z,99.90
2018-09-04T00:58:36.455Z,99.90
2018-09-04T01:02:00.989Z,99.90
2018-09-04T01:05:25.386Z,99.90
2018-09-04T01:08:49.824Z,99.90
2018-09-04T01:12:14.249Z,99.90
2018-09-04T01:15:38.772Z,99.90
2018-09-04T01:19:03.304Z,99.90
2018-09-04T01:22:27.718Z,99.90
2018-09-04T01:25:52.115Z,99.90
2018-09-04T01:29:16.546Z,99.90
2018-09-04T01:32:40.981Z,99.90
2018-09-04T01:36:05.425Z,99.90
2018-09-04T01:39:29.791Z,99.90
2018-09-04T01:42:54.279Z,99.90
2018-09-04T01:46:18.848Z,99.90
2018-09-04T01:49:43.260Z,99.90
2018-09-04T01:53:07.707Z,99.90
2018-09-04T01:56:32.109Z,99.90
2018-09-04T01:59:56.505Z,99.90
2018-09-04T02:03:20.924Z,99.90
2018-09-04T02:06:45.364Z,99.90
2018-09-04T02:10:09.743Z,99.90
2018-09-04T02:13:34.193Z,99.90
2018-09-04T02:16:58.610Z,99.90
2018-09-04T02:20:22.992Z,99.90
2018-09-04T02:23:47.405Z,99.90
2018-09-04T02:27:11.852Z,99.90
2018-09-04T02:30:36.252Z,99.90
2018-09-04T02:34:00.635Z,99.90
2018-09-04T02:37:25.057Z,99.90
2018-09-04T02:40:49.511Z,99.90
2018-09-04T02:44:13.910Z,99.90
2018-09-04T02:47:38.316Z,99.90
2018-09-04T02:51:02.757Z,99.90
2018-09-04T02:54:27.271Z,99.90
2018-09-04T02:57:51.645Z,99.90
2018-09-04T03:01:16.089Z,99.90
2018-09-04T03:04:41.184Z,99.90
2018-09-04T03:08:05.615Z,99.90
2018-09-04T03:11:30.077Z,99.90
2018-09-04T03:14:54.479Z,99.90
2018-09-04T03:18:18.998Z,99.90
2018-09-04T03:21:43.393Z,99.90
2018-09-04T03:25:07.811Z,99.90
2018-09-04T03:28:32.224Z,99.90
2018-09-04T03:31:56.765Z,99.90
2018-09-04T03:35:21.181Z,99.90
2018-09-04T03:38:45.554Z,99.90
2018-09-04T03:42:10.005Z,99.90
2018-09-04T03:45:34.428Z,99.90
2018-09-04T03:48:58.837Z,99.90
2018-09-04T03:52:23.331Z,99.90
2018-09-04T03:55:47.780Z,99.90
2018-09-04T03:59:12.237Z,99.90
2018-09-04T04:02:36.678Z,99.90
2018-09-04T04:06:01.094Z,99.90
2018-09-04T04:09:25.499Z,99.90
2018-09-04T04:12:50.000Z,99.90
2018-09-04T04:16:14.482Z,99.90
2018-09-04T04:19:38.992Z,99.90
2018-09-04T04:23:03.401Z,99.90
2018-09-04T04:26:27.811Z,99.90
2018-09-04T04:29:52.233Z,99.90
2018-09-04T04:33:16.640Z,99.90
2018-09-04T04:36:41.068Z,99.90
2018-09-04T04:40:06.305Z,99.90
2018-09-04T04:43:31.313Z,99.90
2018-09-04T04:46:55.760Z,99.90
2018-09-04T04:50:20.203Z,99.90
2018-09-04T04:53:44.635Z,99.90
2018-09-04T04:57:09.162Z,99.90
2018-09-04T05:00:33.695Z,99.90
2018-09-04T05:03:58.640Z,99.90
2018-09-04T05:07:23.083Z,99.90
2018-09-04T05:10:47.502Z,99.90
2018-09-04T05:14:11.977Z,99.90
2018-09-04T05:17:36.442Z,99.90
2018-09-04T05:21:00.915Z,99.90
2018-09-04T05:24:25.316Z,99.90
2018-09-04T05:27:49.734Z,99.90
2018-09-04T05:31:14.145Z,99.90
2018-09-04T05:34:48.618Z,99.90
2018-09-04T05:38:14.309Z,99.90
2018-09-04T05:41:38.792Z,99.90
2018-09-04T05:45:04.025Z,99.90
2018-09-04T05:48:28.539Z,99.90
2018-09-04T05:51:53.028Z,99.90
2018-09-04T05:55:17.576Z,99.90
2018-09-04T05:58:42.032Z,99.90
2018-09-04T06:02:06.567Z,99.90
2018-09-04T06:05:31.031Z,99.90
2018-09-04T06:08:55.478Z,99.90
2018-09-04T06:12:20.012Z,99.90
2018-09-04T06:15:44.410Z,99.90
2018-09-04T06:19:08.824Z,99.90
2018-09-04T06:22:33.257Z,99.90
2018-09-04T06:25:57.709Z,99.90
2018-09-04T06:29:22.231Z,99.90
2018-09-04T06:32:46.644Z,99.90
2018-09-04T06:36:11.061Z,99.90
2018-09-04T06:39:35.546Z,99.90
2018-09-04T06:42:59.942Z,99.90
2018-09-04T06:46:24.429Z,99.90
2018-09-04T06:49:48.875Z,99.90
2018-09-04T06:53:13.294Z,99.90
2018-09-04T06:56:37.681Z,99.90
2018-09-04T07:00:02.113Z,99.90
2018-09-04T07:03:26.529Z,99.90
2018-09-04T07:06:51.942Z,99.90
2018-09-04T07:10:16.341Z,99.90
2018-09-04T07:13:40.765Z,99.90
2018-09-04T07:17:05.262Z,99.90
2018-09-04T07:20:29.674Z,99.90
2018-09-04T07:23:54.122Z,99.90
2018-09-04T07:27:18.602Z,99.90
2018-09-04T07:30:43.078Z,99.90
2018-09-04T07:34:07.501Z,99.90
2018-09-04T07:37:31.965Z,99.90
2018-09-04T07:40:56.419Z,99.90
2018-09-04T07:44:20.848Z,99.90
2018-09-04T07:47:45.292Z,99.90
2018-09-04T07:51:09.691Z,99.90
2018-09-04T07:54:34.135Z,99.90
2018-09-04T07:57:58.606Z,99.90
2018-09-04T08:01:22.992Z,99.90
2018-09-04T08:04:47.473Z,99.90
2018-09-04T08:08:11.916Z,99.90
2018-09-04T08:11:36.376Z,99.90
2018-09-04T08:15:00.822Z,99.90
2018-09-04T08:18:25.242Z,99.90
2018-09-04T08:21:49.717Z,99.90
2018-09-04T08:25:14.161Z,99.90
2018-09-04T08:28:38.578Z,99.90
2018-09-04T08:32:03.027Z,99.90
2018-09-04T08:35:27.435Z,99.90
2018-09-04T08:38:52.639Z,99.90
2018-09-04T08:42:17.058Z,99.90
2018-09-04T08:45:41.511Z,99.90
2018-09-04T08:49:05.998Z,99.90
2018-09-04T08:52:30.460Z,99.90
2018-09-04T08:55:54.893Z,99.60
2018-09-04T08:59:19.425Z,98.90
2018-09-04T09:02:43.863Z,98.40
2018-09-04T09:06:08.363Z,98.10
2018-09-04T09:09:32.789Z,97.80
2018-09-04T09:12:57.244Z,97.40
2018-09-04T09:16:21.662Z,97.40
2018-09-04T09:19:46.129Z,97.80
2018-09-04T09:23:10.626Z,98.00
2018-09-04T09:26:35.107Z,98.20
2018-09-04T09:29:59.563Z,97.80
2018-09-04T09:33:23.982Z,96.40
2018-09-04T09:36:48.546Z,95.40
2018-09-04T09:40:12.861Z,95.00
2018-09-04T09:43:37.310Z,93.80
2018-09-04T09:47:03.817Z,93.90
2018-09-04T09:50:28.289Z,92.30
2018-09-04T09:53:52.721Z,93.00
2018-09-04T09:57:17.128Z,92.20
2018-09-04T10:00:46.861Z,92.20
2018-09-04T10:04:11.323Z,92.40
2018-09-04T10:07:35.798Z,92.30
2018-09-04T10:11:00.175Z,92.60
2018-09-04T10:14:24.663Z,92.00
2018-09-04T10:17:49.093Z,90.40
2018-09-04T10:21:13.569Z,88.00
2018-09-04T10:24:38.644Z,85.60
2018-09-04T10:28:03.131Z,80.40
2018-09-04T10:31:27.560Z,76.40
2018-09-04T10:34:51.962Z,73.10
2018-09-04T10:38:16.433Z,71.70
2018-09-04T10:41:40.919Z,68.50
2018-09-04T10:45:05.738Z,68.80
2018-09-04T10:48:31.233Z,67.60
2018-09-04T10:51:55.659Z,66.50
2018-09-04T10:55:20.181Z,65.40
2018-09-04T10:58:44.629Z,63.40
2018-09-04T11:02:09.092Z,64.40
2018-09-04T11:05:33.503Z,62.50
2018-09-04T11:08:57.921Z,61.70
2018-09-04T11:12:22.396Z,61.30
2018-09-04T11:15:46.875Z,59.40
2018-09-04T11:19:14.378Z,60.60
2018-09-04T11:22:38.822Z,61.40
2018-09-04T11:26:03.254Z,59.10
2018-09-04T11:29:27.678Z,57.70
2018-09-04T11:32:52.108Z,55.80
2018-09-04T11:36:16.493Z,56.20
2018-09-04T11:39:40.946Z,57.50
2018-09-04T11:43:05.595Z,56.60
2018-09-04T11:46:30.028Z,58.40
2018-09-04T11:49:54.444Z,60.00
2018-09-04T11:53:18.879Z,60.30
2018-09-04T11:56:43.321Z,62.30
2018-09-04T12:00:10.196Z,62.30
2018-09-04T12:03:34.645Z,63.40
2018-09-04T12:06:59.074Z,61.10
2018-09-04T12:10:23.486Z,64.30
2018-09-04T12:13:47.893Z,58.60
2018-09-04T12:17:12.301Z,54.90
2018-09-04T12:20:42.485Z,53.40
2018-09-04T12:24:06.925Z,52.20
2018-09-04T12:27:32.170Z,50.10
2018-09-04T12:30:57.096Z,48.90
2018-09-04T12:34:21.526Z,49.60
2018-09-04T12:37:45.928Z,49.10
2018-09-04T12:41:17.328Z,49.50
2018-09-04T12:44:41.748Z,48.70
2018-09-04T12:48:06.218Z,48.50
2018-09-04T12:51:30.578Z,49.30
2018-09-04T12:54:55.412Z,50.80
2018-09-04T12:58:19.818Z,50.20
2018-09-04T13:01:44.228Z,48.40
2018-09-04T13:05:08.902Z,48.50
2018-09-04T13:08:34.221Z,43.00
2018-09-04T13:11:58.740Z,41.10
2018-09-04T13:15:23.240Z,43.20
2018-09-04T13:18:47.694Z,44.50
2018-09-04T13:22:12.085Z,45.50
2018-09-04T13:25:36.569Z,46.70
2018-09-04T13:29:01.098Z,44.50
2018-09-04T13:32:32.603Z,45.40
2018-09-04T13:35:57.076Z,42.20
2018-09-04T13:39:21.503Z,39.60
2018-09-04T13:42:45.890Z,39.10
2018-09-04T13:46:10.333Z,38.60
2018-09-04T13:49:34.851Z,37.70
2018-09-04T13:52:59.166Z,35.50
2018-09-04T13:56:23.605Z,34.50
2018-09-04T13:59:48.013Z,35.50
2018-09-04T14:03:12.405Z,36.50
2018-09-04T14:06:36.981Z,37.20
2018-09-04T14:10:01.497Z,37.50
2018-09-04T14:13:25.901Z,37.30
2018-09-04T14:16:50.414Z,38.30
2018-09-04T14:20:14.783Z,39.10
2018-09-04T14:23:39.184Z,38.30
2018-09-04T14:27:03.638Z,37.20
2018-09-04T14:30:28.078Z,39.10
2018-09-04T14:33:52.460Z,35.80
2018-09-04T14:37:16.957Z,34.40
2018-09-04T14:40:41.292Z,36.90
2018-09-04T14:44:05.920Z,38.80
2018-09-04T14:47:31.402Z,43.40
2018-09-04T14:50:56.448Z,47.20
2018-09-04T14:54:20.842Z,49.10
2018-09-04T14:57:45.237Z,50.20
2018-09-04T15:01:09.636Z,53.30
2018-09-04T15:04:34.672Z,54.80
2018-09-04T15:07:59.086Z,54.30
2018-09-04T15:11:23.506Z,53.90
2018-09-04T15:14:47.917Z,53.40
2018-09-04T15:18:12.321Z,54.10
2018-09-04T15:21:36.764Z,55.20
2018-09-04T15:25:01.189Z,58.80
2018-09-04T15:28:25.564Z,57.70
2018-09-04T15:31:49.947Z,55.50
2018-09-04T15:35:14.391Z,55.70
2018-09-04T15:38:38.769Z,56.60
2018-09-04T15:42:03.176Z,56.50
2018-09-04T15:45:27.577Z,55.40
2018-09-04T15:48:57.125Z,56.00
2018-09-04T15:52:21.510Z,56.90
2018-09-04T15:55:45.961Z,56.30
2018-09-04T15:59:10.830Z,57.00
2018-09-04T16:02:35.258Z,57.50
2018-09-04T16:06:00.515Z,56.40
2018-09-04T16:09:25.287Z,57.10
2018-09-04T16:12:50.440Z,55.50
2018-09-04T16:16:15.653Z,56.30
2018-09-04T16:19:40.729Z,58.10
2018-09-04T16:23:06.945Z,62.80
2018-09-04T16:26:31.519Z,65.00
2018-09-04T16:29:57.173Z,67.30
2018-09-04T16:33:21.975Z,68.80
2018-09-04T16:36:46.472Z,69.20
2018-09-04T16:40:10.978Z,69.00
2018-09-04T16:43:36.207Z,69.30
2018-09-04T16:47:00.765Z,69.60
2018-09-04T16:50:25.329Z,68.70
2018-09-04T16:53:49.745Z,69.30
2018-09-04T16:57:14.269Z,70.20
2018-09-04T17:00:38.771Z,72.60
2018-09-04T17:04:03.257Z,73.40
2018-09-04T17:07:27.667Z,74.20
2018-09-04T17:10:52.617Z,72.20
2018-09-04T17:14:17.267Z,74.10
2018-09-04T17:17:43.090Z,74.10
2018-09-04T17:21:08.177Z,73.30
2018-09-04T17:24:33.254Z,75.00
2018-09-04T17:27:58.313Z,75.30
2018-09-04T17:31:22.968Z,74.10
2018-09-04T17:34:47.684Z,74.70
2018-09-04T17:38:12.892Z,75.20
2018-09-04T17:41:37.620Z,75.80
2018-09-04T17:45:02.402Z,74.90
2018-09-04T17:48:27.222Z,75.20
2018-09-04T17:51:52.099Z,76.70
2018-09-04T17:55:16.721Z,77.50
2018-09-04T17:58:41.555Z,78.40
2018-09-04T18:02:06.474Z,77.60
2018-09-04T18:05:31.297Z,77.60
2018-09-04T18:08:55.999Z,80.30
2018-09-04T18:12:20.871Z,81.00
2018-09-04T18:15:45.570Z,80.70
2018-09-04T18:19:10.331Z,82.00
2018-09-04T18:22:35.085Z,82.60
2018-09-04T18:25:59.653Z,82.20
2018-09-04T18:29:24.449Z,83.40
2018-09-04T18:32:49.218Z,85.10
2018-09-04T18:36:13.919Z,85.20
2018-09-04T18:39:38.620Z,86.00
2018-09-04T18:43:03.320Z,86.10
2018-09-04T18:46:28.117Z,87.00
2018-09-04T18:49:52.935Z,87.10
2018-09-04T18:53:17.735Z,86.70
2018-09-04T18:56:42.296Z,87.60
2018-09-04T19:00:07.508Z,88.20
2018-09-04T19:03:31.925Z,89.00
2018-09-04T19:06:56.376Z,88.90
2018-09-04T19:10:20.813Z,88.70
2018-09-04T19:13:45.280Z,89.10
2018-09-04T19:17:09.746Z,89.80
2018-09-04T19:20:34.231Z,90.10
2018-09-04T19:23:58.783Z,90.00
2018-09-04T19:27:23.179Z,90.70
2018-09-04T19:30:47.621Z,90.70
2018-09-04T19:34:12.043Z,90.90
2018-09-04T19:37:36.549Z,91.20
2018-09-04T19:41:00.952Z,91.90
2018-09-04T19:44:25.398Z,92.50
2018-09-04T19:47:49.822Z,93.00
2018-09-04T19:51:14.324Z,93.40
2018-09-04T19:54:38.875Z,93.70
2018-09-04T19:58:03.323Z,94.10
2018-09-04T20:01:27.769Z,94.20
2018-09-04T20:04:56.377Z,93.60
2018-09-04T20:08:21.533Z,93.80
2018-09-04T20:11:47.560Z,93.80
2018-09-04T20:15:13.312Z,93.90
2018-09-04T20:18:38.731Z,93.90
2018-09-04T20:22:04.200Z,94.40
2018-09-04T20:25:29.039Z,94.20
2018-09-04T20:28:53.482Z,94.70
2018-09-04T20:32:19.419Z,94.70
2018-09-04T20:35:44.134Z,94.70
2018-09-04T20:39:08.545Z,94.70
2018-09-04T20:42:33.758Z,94.70
2018-09-04T20:45:58.175Z,94.80
2018-09-04T20:49:22.652Z,94.80
2018-09-04T20:52:47.179Z,94.80
2018-09-04T20:56:11.656Z,95.00
2018-09-04T20:59:53.061Z,95.40
2018-09-04T21:03:34.434Z,95.50
2018-09-04T21:06:57.244Z,95.70
2018-09-04T21:10:21.707Z,95.90
2018-09-04T21:13:46.167Z,96.00
2018-09-04T21:17:10.712Z,96.20
2018-09-04T21:20:35.178Z,96.30
2018-09-04T21:23:59.639Z,96.60
2018-09-04T21:27:24.079Z,96.70
2018-09-04T21:30:48.511Z,96.90
2018-09-04T21:34:12.922Z,97.00
2018-09-04T21:37:37.339Z,97.20
2018-09-04T21:41:01.748Z,97.40
2018-09-04T21:44:26.159Z,97.40
2018-09-04T21:47:50.644Z,97.70
2018-09-04T21:51:15.156Z,97.90
2018-09-04T21:54:40.663Z,97.90
2018-09-04T21:58:05.278Z,98.50
2018-09-04T22:01:29.719Z,98.30
2018-09-04T22:04:54.151Z,98.50
2018-09-04T22:08:18.614Z,98.70
2018-09-04T22:11:43.359Z,98.80
2018-09-04T22:15:07.863Z,98.90
2018-09-04T22:18:32.321Z,98.60
2018-09-04T22:21:56.758Z,98.80
2018-09-04T22:25:21.300Z,98.90
2018-09-04T22:28:45.785Z,99.10
2018-09-04T22:32:11.244Z,99.30
2018-09-04T22:35:35.710Z,99.30
2018-09-04T22:39:00.217Z,99.40
2018-09-04T22:42:24.638Z,99.60
2018-09-04T22:45:49.065Z,99.60
2018-09-04T22:49:13.574Z,99.70
2018-09-04T22:52:38.044Z,99.60
2018-09-04T22:56:02.477Z,99.80
2018-09-04T22:59:27.626Z,99.80
2018-09-04T23:02:52.085Z,99.90
2018-09-04T23:06:16.544Z,99.90
2018-09-04T23:09:40.991Z,99.90
2018-09-04T23:13:05.461Z,99.90
2018-09-04T23:16:29.906Z,99.90
2018-09-04T23:19:54.371Z,99.90
2018-09-04T23:23:18.797Z,99.90
2018-09-04T23:26:43.223Z,99.90
2018-09-04T23:30:07.731Z,99.90
2018-09-04T23:33:33.211Z,99.90
2018-09-04T23:36:57.682Z,99.90
2018-09-04T23:40:22.098Z,99.90
2018-09-04T23:43:46.551Z,99.90
2018-09-04T23:47:10.967Z,99.90
2018-09-04T23:50:35.462Z,99.90
2018-09-04T23:53:59.928Z,99.90
2018-09-04T23:57:24.396Z,99.90
